createdAt,value
2022-10-24T00:01:00.024Z,95612.63
2022-10-24T00:06:01.426Z,95596.22
2022-10-24T00:11:11.914Z,95602.22
2022-10-24T00:16:13.757Z,95592.78
2022-10-24T00:21:15.536Z,95586.16
2022-10-24T00:26:16.947Z,95578.69
2022-10-24T00:31:19.645Z,95575.88
2022-10-24T00:36:23.214Z,95598.09
2022-10-24T00:41:32.447Z,95622.41
2022-10-24T00:46:33.855Z,95629.16
2022-10-24T00:51:35.262Z,95645.16
2022-10-24T00:56:41.626Z,95658.09
2022-10-24T01:01:44.984Z,95679.72
2022-10-24T01:06:52.531Z,95663.59
2022-10-24T01:12:24.204Z,95658.63
2022-10-24T01:17:31.474Z,95648.47
2022-10-24T01:22:49.521Z,95653.44
2022-10-24T01:28:00.902Z,95654.13
2022-10-24T01:33:11.842Z,95678.72
2022-10-24T01:38:16.262Z,95691.66
2022-10-24T01:43:22.750Z,95688.03
2022-10-24T01:48:26.095Z,95658.13
2022-10-24T01:53:30.132Z,95671.22
2022-10-24T01:58:31.509Z,95677.19
2022-10-24T02:03:46.744Z,95683.31
2022-10-24T02:08:53.820Z,95690.63
2022-10-24T02:14:17.461Z,95679.50
2022-10-24T02:19:19.102Z,95666.38
2022-10-24T02:24:27.391Z,95654.09
2022-10-24T02:29:42.331Z,95649.13
2022-10-24T02:34:45.683Z,95646.13
2022-10-24T02:39:49.015Z,95656.59
2022-10-24T02:44:50.682Z,95650.78
2022-10-24T02:49:53.119Z,95666.56
2022-10-24T02:54:54.518Z,95666.56
2022-10-24T02:59:55.894Z,95656.09
2022-10-24T03:04:57.309Z,95666.75
2022-10-24T03:09:58.708Z,95654.28
2022-10-24T03:15:00.104Z,95638.50
2022-10-24T03:20:01.702Z,95659.44
2022-10-24T03:25:03.276Z,95672.88
2022-10-24T03:30:05.633Z,95672.88
2022-10-24T03:35:10.390Z,95684.16
2022-10-24T03:40:14.715Z,95687.63
2022-10-24T03:45:16.236Z,95683.50
2022-10-24T03:50:18.190Z,95695.97
2022-10-24T03:55:19.752Z,95694.66
2022-10-24T04:00:21.239Z,95701.09
2022-10-24T04:05:22.681Z,95693.63
2022-10-24T04:10:24.073Z,95686.31
2022-10-24T04:15:25.478Z,95686.31
2022-10-24T04:20:27.006Z,95689.13
2022-10-24T04:25:28.442Z,95645.66
2022-10-24T04:30:29.954Z,95661.44
2022-10-24T04:35:31.439Z,95686.84
2022-10-24T04:40:32.873Z,95710.75
2022-10-24T04:45:34.266Z,95690.66
2022-10-24T04:50:36.617Z,95674.38
2022-10-24T05:00:44.575Z,95630.88
2022-10-24T05:05:46.942Z,95616.78
2022-10-24T05:10:48.374Z,95622.56
2022-10-24T05:15:49.770Z,95612.94
2022-10-24T05:20:51.141Z,95607.97
2022-10-24T05:25:53.096Z,95606.16
2022-10-24T05:30:54.650Z,95597.53
2022-10-24T05:35:56.140Z,95610.47
2022-10-24T05:40:57.528Z,95611.63
2022-10-24T05:45:58.931Z,95600.34
2022-10-24T05:51:00.319Z,95588.41
2022-10-24T05:56:01.794Z,95607.97
2022-10-24T06:01:03.630Z,95624.06
2022-10-24T06:06:09.391Z,95627.91
2022-10-24T06:11:12.238Z,95627.25
2022-10-24T06:16:13.677Z,95629.41
2022-10-24T06:21:15.090Z,95638.19
2022-10-24T06:26:19.144Z,95646.00
2022-10-24T06:31:21.846Z,95659.13
2022-10-24T06:36:25.784Z,95691.28
2022-10-24T06:41:29.596Z,95693.28
2022-10-24T06:46:32.327Z,95698.91
2022-10-24T06:51:33.744Z,95694.91
2022-10-24T06:56:35.419Z,95704.34
2022-10-24T07:01:37.052Z,95689.41
2022-10-24T07:06:38.574Z,95694.75
2022-10-24T07:11:39.962Z,95696.25
2022-10-24T07:16:41.355Z,95706.53
2022-10-24T07:21:42.834Z,95712.19
2022-10-24T07:26:44.197Z,95709.72
2022-10-24T07:31:47.423Z,95704.88
2022-10-24T07:36:48.844Z,95687.31
2022-10-24T07:41:50.252Z,95670.53
2022-10-24T07:46:51.664Z,95689.47
2022-10-24T07:51:53.046Z,95677.19
2022-10-24T07:56:54.919Z,95678.34
2022-10-24T08:01:56.388Z,95678.00
2022-10-24T08:06:57.885Z,95681.53
2022-10-24T08:11:59.259Z,95675.06
2022-10-24T08:17:00.670Z,95701.63
2022-10-24T08:22:03.289Z,95714.06
2022-10-24T08:27:04.738Z,95732.66
2022-10-24T08:32:06.565Z,95727.16
2022-10-24T08:37:07.962Z,95724.50
2022-10-24T08:42:14.435Z,95743.44
2022-10-24T08:47:26.333Z,95771.66
2022-10-24T08:52:48.980Z,95783.44
2022-10-24T08:57:57.186Z,95799.72
2022-10-24T09:03:11.497Z,95814.00
2022-10-24T09:08:33.886Z,95815.81
2022-10-24T09:13:37.785Z,95824.31
2022-10-24T09:18:43.089Z,95796.59
2022-10-24T09:23:45.786Z,95801.59
2022-10-24T09:28:47.230Z,95810.94
2022-10-24T09:33:50.224Z,95839.13
2022-10-24T09:38:51.889Z,95833.16
2022-10-24T09:43:59.154Z,95851.59
2022-10-24T09:49:12.627Z,95836.81
2022-10-24T09:54:20.089Z,95834.81
2022-10-24T09:59:34.907Z,95843.44
2022-10-24T10:04:37.759Z,95831.16
2022-10-24T10:09:52.722Z,95840.63
2022-10-24T10:14:57.521Z,95836.50
2022-10-24T10:19:59.626Z,95878.03
2022-10-24T10:25:01.111Z,95881.31
2022-10-24T10:30:21.679Z,95891.28
2022-10-24T10:35:48.718Z,95887.81
2022-10-24T10:40:57.670Z,95917.84
2022-10-24T10:46:23.534Z,95929.47
2022-10-24T10:51:33.607Z,95946.97
2022-10-24T10:56:49.177Z,95946.69
2022-10-24T11:02:01.703Z,95919.66
2022-10-24T11:07:38.794Z,95896.94
2022-10-24T11:12:42.993Z,95883.66
2022-10-24T11:18:10.715Z,95881.88
2022-10-24T11:23:24.270Z,95861.44
2022-10-24T11:28:46.143Z,95853.81
2022-10-24T11:34:11.635Z,95857.25
2022-10-24T11:39:20.054Z,95873.34
2022-10-24T11:44:38.391Z,95873.47
2022-10-24T11:49:47.474Z,95880.41
2022-10-24T11:54:56.115Z,95866.50
2022-10-24T11:59:58.419Z,95857.75
2022-10-24T12:05:14.548Z,95847.13
2022-10-24T12:10:21.996Z,95846.50
2022-10-24T12:15:26.100Z,95831.09
2022-10-24T12:20:28.507Z,95825.81
2022-10-24T12:25:35.168Z,95812.16
2022-10-24T12:30:36.821Z,95819.66
2022-10-24T12:35:40.931Z,95804.91
2022-10-24T12:40:45.515Z,95793.28
2022-10-24T12:45:47.055Z,95785.81
2022-10-24T12:50:57.343Z,95779.69
2022-10-24T12:55:58.692Z,95800.75
2022-10-24T13:01:06.503Z,95789.31
2022-10-24T13:06:18.229Z,95787.63
2022-10-24T13:11:22.479Z,95765.38
2022-10-24T13:16:35.637Z,95752.13
2022-10-24T13:21:57.702Z,95735.50
2022-10-24T13:27:12.611Z,95765.56
2022-10-24T13:32:18.548Z,95758.44
2022-10-24T13:37:26.434Z,95758.09
2022-10-24T13:42:42.190Z,95771.25
2022-10-24T13:47:48.585Z,95761.75
2022-10-24T13:53:13.298Z,95757.59
2022-10-24T13:58:20.479Z,95775.53
2022-10-24T14:03:24.812Z,95780.69
2022-10-24T14:08:35.137Z,95779.69
2022-10-24T14:13:44.888Z,95783.34
2022-10-24T14:18:46.306Z,95783.66
2022-10-24T14:24:00.515Z,95783.16
2022-10-24T14:29:02.027Z,95788.78
2022-10-24T14:34:05.797Z,95785.44
2022-10-24T14:39:07.422Z,95813.00
2022-10-24T14:44:15.616Z,95809.31
2022-10-24T14:49:26.141Z,95815.81
2022-10-24T14:54:33.477Z,95822.31
2022-10-24T14:59:38.106Z,95814.47
2022-10-24T15:04:43.043Z,95796.03
2022-10-24T15:10:20.209Z,95800.72
2022-10-24T15:15:45.771Z,95798.22
2022-10-24T15:20:50.334Z,95805.84
2022-10-24T15:26:17.495Z,95799.69
2022-10-24T15:31:20.849Z,95790.22
2022-10-24T15:36:25.296Z,95790.16
2022-10-24T15:41:27.592Z,95778.22
2022-10-24T15:46:29.178Z,95783.19
2022-10-24T15:51:30.858Z,95780.53
2022-10-24T15:56:32.597Z,95783.88
2022-10-24T16:01:39.855Z,95775.38
2022-10-24T16:06:42.171Z,95780.22
2022-10-24T16:11:43.591Z,95784.47
2022-10-24T16:16:45.019Z,95786.78
2022-10-24T16:21:46.451Z,95780.81
2022-10-24T16:26:47.923Z,95787.09
2022-10-24T16:31:49.321Z,95788.25
2022-10-24T16:36:54.963Z,95787.41
2022-10-24T16:41:56.392Z,95778.78
2022-10-24T16:46:57.819Z,95789.59
2022-10-24T16:51:59.232Z,95793.84
2022-10-24T16:57:00.655Z,95783.88
2022-10-24T17:02:02.142Z,95775.06
2022-10-24T17:07:03.595Z,95783.56
2022-10-24T17:12:05.971Z,95777.03
2022-10-24T17:17:07.431Z,95769.94
2022-10-24T17:22:11.352Z,95767.78
2022-10-24T17:27:14.584Z,95764.00
2022-10-24T17:32:16.951Z,95762.78
2022-10-24T17:37:56.111Z,95766.34
2022-10-24T17:42:57.770Z,95771.81
2022-10-24T17:47:59.265Z,95768.47
2022-10-24T17:53:00.677Z,95774.44
2022-10-24T18:09:33.013Z,95786.81
2022-10-24T18:14:36.631Z,95782.97
2022-10-24T18:19:38.035Z,95779.97
2022-10-24T18:24:39.430Z,95788.22
2022-10-24T18:34:47.243Z,95805.50
2022-10-24T18:39:50.002Z,95799.88
2022-10-24T18:44:52.189Z,95805.19
2022-10-24T18:49:53.906Z,95808.81
2022-10-24T18:55:05.367Z,95810.97
2022-10-24T19:00:07.429Z,95814.56
2022-10-24T19:05:15.570Z,95812.63
2022-10-24T19:10:24.687Z,95816.78
2022-10-24T19:15:26.342Z,95828.22
2022-10-24T19:20:27.834Z,95833.75
2022-10-24T19:25:29.307Z,95834.56
2022-10-24T19:30:30.721Z,95829.22
2022-10-24T19:35:32.152Z,95833.31
2022-10-24T19:40:33.549Z,95835.03
2022-10-24T19:45:35.213Z,95830.41
2022-10-24T19:50:36.627Z,95844.81
2022-10-24T19:55:38.312Z,95848.22
2022-10-24T20:00:40.868Z,95852.28
2022-10-24T20:05:42.326Z,95855.63
2022-10-24T20:10:50.996Z,95855.75
2022-10-24T20:16:03.445Z,95860.78
2022-10-24T20:21:07.211Z,95867.88
2022-10-24T20:26:17.414Z,95871.59
2022-10-24T20:31:25.059Z,95880.09
2022-10-24T20:36:27.350Z,95885.66
2022-10-24T20:41:29.095Z,95897.84
2022-10-24T20:46:30.962Z,95894.91
2022-10-24T20:51:32.556Z,95898.97
2022-10-24T20:56:35.197Z,95905.25
2022-10-24T21:01:38.287Z,95902.09
2022-10-24T21:06:39.919Z,95908.75
2022-10-24T21:11:41.403Z,95912.94
2022-10-24T21:16:42.851Z,95917.09
2022-10-24T21:21:44.266Z,95919.97
2022-10-24T21:26:45.668Z,95929.75
2022-10-24T21:31:48.947Z,95926.25
2022-10-24T21:36:50.340Z,95921.69
2022-10-24T21:41:51.711Z,95923.78
2022-10-24T21:46:53.100Z,95919.97
2022-10-24T21:51:54.498Z,95925.81
2022-10-24T21:56:55.920Z,95933.63
2022-10-24T22:01:57.459Z,95933.38
2022-10-24T22:06:58.956Z,95937.59
2022-10-24T22:12:00.343Z,95939.44
2022-10-24T22:17:01.747Z,95943.94
2022-10-24T22:22:03.312Z,95942.97
2022-10-24T22:27:04.735Z,95946.44
2022-10-24T22:32:06.535Z,95953.81
2022-10-24T22:37:23.347Z,95969.78
2022-10-24T22:42:24.898Z,95974.41
2022-10-24T22:47:43.696Z,95971.19
2022-10-24T22:52:45.534Z,95983.72
2022-10-24T22:57:47.238Z,95981.22
2022-10-24T23:02:51.283Z,95990.53
2022-10-24T23:07:58.667Z,95994.59
2022-10-24T23:13:00.363Z,96001.59
2022-10-24T23:18:02.026Z,95995.47
2022-10-24T23:23:16.297Z,96024.75
2022-10-24T23:28:49.273Z,96029.91
2022-10-24T23:33:50.950Z,96030.47
2022-10-24T23:38:52.621Z,96039.50
2022-10-24T23:43:54.385Z,96033.81
2022-10-24T23:49:22.935Z,96038.69
2022-10-24T23:54:30.207Z,96053.28
2022-10-24T23:59:31.604Z,96036.16
